Terminal Aerodrome Forecast
Issued by NWS

Home | Current Version | Previous Version | Text Only | Print | Product List | Glossary On
Versions: 1 2 3 4 5 6 7 8 9 10 11 12
000
FTUS42 KGSP 211735
TAFHKY
TAF
KHKY 211735Z 2118/2218 15005KT P6SM FEW025 BKN250
     FM212300 11003KT P6SM BKN050
     FM220500 VRB02KT P6SM -SHRA OVC025
     FM220700 VRB02KT 4SM -SHRA OVC015
     FM221200 VRB02KT 1 1/2SM -SHRA BR OVC008
     FM221600 VRB02KT P6SM OVC008 PROB30 2216/2217 3/4SM -SHRA
      OVC003=

USA.gov is the U.S. government's official web portal to all federal, state and local government web resources and services.